EmailTwitter


Observations de surface / Québec / LFBP

Régions: Québec | Canada | États-Unis | Europe | France | UK | Elsewhere
Station
Affichage
Infos & localisation pour LFBP | Aide pour décoder les METARs

Observations prises le 2017-05-24 à 06H00 UTC à PONT-LONG-UZEIN/, FR (LFBP)

Température: 14.0 Celsius

Point de rosée: 13.0 Celsius

Humidité relative: 94%

Vents: Variable à 4 km/h ou 2 noeuds.

Pression au niveau moyen de la mer: 102.20 kilopascals.

Visibilité horizontale: 4.97 milles terrestres ou 7.95 kilomètres.

Observation METAR:

LFBP 240600Z AUTO VRB02KT 8000 NSC 14/13 Q1022 TEMPO 1500 BR=